Time;durP1;ratioP1;P1;durP2;ratioP2;P2;SDS_P1;SDS_P2;PMS_P1;PMS_P2;Temp;Humidity;BMP_temperature;BMP_pressure;BME280_temperature;BME280_humidity;BME280_pressure;Samples;Min_cycle;Max_cycle;Signal;HPM_P1;HPM_P2
2021/09/22 09:36:25;;;;;;;3.70;3.40;;;;;;;;;;6239300;22;20028;-80
2021/09/22 09:39:11;;;;;;;5.68;3.30;;;;;;;;;;6246930;23;20016;-81
2021/09/22 09:41:54;;;;;;;4.95;3.72;;;;;;;;;;6219582;23;20008;-79
2021/09/22 09:44:26;;;;;;;4.47;3.00;;;;;;;;;;6219557;23;20079;-79
2021/09/22 09:46:54;;;;;;;3.88;3.28;;;;;;;;;;6246089;23;20059;-81
2021/09/22 09:49:23;;;;;;;5.05;3.58;;;;;;;;;;6246440;23;20372;-81
2021/09/22 09:51:54;;;;;;;5.43;3.72;;;;;;;;;;6246538;23;20004;-80
2021/09/22 09:54:33;;;;;;;3.75;2.90;;;;;;;;;;6246107;22;20424;-82
2021/09/22 09:57:12;;;;;;;4.30;3.50;;;;;;;;;;6247300;23;20046;-85
2021/09/22 09:59:45;;;;;;;;;;;;;;;;;;6255095;23;20027;-85
2021/09/22 10:02:32;;;;;;;4.82;3.67;;;;;;;;;;6223034;23;19911;-82
2021/09/22 10:04:59;;;;;;;4.63;3.00;;;;;;;;;;6246513;23;20035;-80
2021/09/22 10:07:26;;;;;;;5.30;3.47;;;;;;;;;;6219649;23;20008;-81
2021/09/22 10:09:52;;;;;;;7.63;3.97;;;;;;;;;;6246824;23;20000;-88
2021/09/22 10:12:19;;;;;;;4.95;3.70;;;;;;;;;;6246745;23;20007;-79
2021/09/22 10:14:48;;;;;;;4.15;2.90;;;;;;;;;;6246598;22;20034;-82
2021/09/22 10:17:15;;;;;;;4.55;3.38;;;;;;;;;;6219999;23;20331;-80
2021/09/22 10:19:46;;;;;;;5.85;3.22;;;;;;;;;;6246778;23;20015;-81
2021/09/22 10:22:12;;;;;;;4.32;3.08;;;;;;;;;;6246713;23;20036;-85
2021/09/22 10:24:40;;;;;;;4.93;3.40;;;;;;;;;;6246410;22;20007;-81
2021/09/22 10:27:05;;;;;;;4.72;2.92;;;;;;;;;;6246450;23;20008;-80
2021/09/22 10:29:38;;;;;;;3.83;2.92;;;;;;;;;;6246398;23;20058;-81
2021/09/22 10:32:05;;;;;;;3.88;3.38;;;;;;;;;;6245590;23;20008;-77
2021/09/22 10:34:37;;;;;;;3.50;3.17;;;;;;;;;;6246339;22;20007;-84
2021/09/22 10:37:05;;;;;;;5.35;3.20;;;;;;;;;;6246121;23;20035;-87
2021/09/22 10:39:33;;;;;;;3.90;3.50;;;;;;;;;;6246240;23;20079;-85
2021/09/22 10:41:59;;;;;;;4.93;3.85;;;;;;;;;;6219459;23;20339;-84
2021/09/22 10:44:35;;;;;;;5.22;3.92;;;;;;;;;;6246223;22;20034;-83
2021/09/22 10:47:32;;;;;;;4.43;4.00;;;;;;;;;;6219279;23;20066;-86
2021/09/22 10:49:57;;;;;;;4.63;3.88;;;;;;;;;;6246092;23;19997;-80
2021/09/22 10:52:36;;;;;;;4.53;3.55;;;;;;;;;;6246371;22;20091;-82
2021/09/22 10:55:16;;;;;;;5.05;4.13;;;;;;;;;;6246027;23;20027;-81
2021/09/22 10:57:47;;;;;;;5.05;4.55;;;;;;;;;;6247068;23;20427;-80
2021/09/22 11:00:19;;;;;;;4.82;3.80;;;;;;;;;;6246613;23;20131;-83
2021/09/22 11:02:48;;;;;;;6.72;4.88;;;;;;;;;;6246800;22;20011;-80
2021/09/22 11:05:33;;;;;;;7.47;4.85;;;;;;;;;;6246089;23;20000;-78
2021/09/22 11:08:01;;;;;;;8.25;4.70;;;;;;;;;;6195782;23;20008;-78
2021/09/22 11:10:43;;;;;;;5.53;5.03;;;;;;;;;;6248150;23;20296;-79
2021/09/22 11:13:23;;;;;;;5.65;4.75;;;;;;;;;;6247879;22;20007;-78
2021/09/22 11:16:10;;;;;;;5.93;5.32;;;;;;;;;;6247361;23;20001;-79
2021/09/22 11:18:40;;;;;;;5.22;4.63;;;;;;;;;;6220537;23;20316;-78
2021/09/22 11:21:05;;;;;;;7.65;4.82;;;;;;;;;;6248045;23;20066;-79
2021/09/22 11:23:31;;;;;;;6.97;4.95;;;;;;;;;;6247717;22;20436;-80
2021/09/22 11:26:08;;;;;;;5.45;4.57;;;;;;;;;;6247977;23;20000;-80
2021/09/22 11:28:34;;;;;;;6.70;4.53;;;;;;;;;;6247703;23;19996;-81
2021/09/22 11:30:59;;;;;;;4.18;3.70;;;;;;;;;;6220855;23;20012;-79
2021/09/22 11:33:26;;;;;;;6.35;4.28;;;;;;;;;;6247588;22;20027;-82
2021/09/22 11:35:52;;;;;;;4.57;3.90;;;;;;;;;;6247878;23;20326;-82
2021/09/22 11:38:19;;;;;;;6.70;4.00;;;;;;;;;;6247527;23;20050;-82
2021/09/22 11:40:46;;;;;;;5.13;4.47;;;;;;;;;;6247704;23;20004;-81
2021/09/22 11:43:14;;;;;;;7.25;4.28;;;;;;;;;;6247569;22;20004;-82
2021/09/22 11:45:45;;;;;;;7.18;4.75;;;;;;;;;;6247734;23;20054;-82
2021/09/22 11:48:14;;;;;;;5.53;4.93;;;;;;;;;;6247817;23;20012;-79
2021/09/22 11:50:41;;;;;;;4.63;4.22;;;;;;;;;;6247530;23;20007;-80
2021/09/22 16:40:17;;;;;;;4.30;3.70;;;;;;;;;;6233819;22;20158;-81
2021/09/22 16:42:45;;;;;;;6.65;4.10;;;;;;;;;;6247026;23;20008;-77
2021/09/22 16:45:11;;;;;;;5.72;4.30;;;;;;;;;;6247455;23;20001;-79
2021/09/22 16:47:37;;;;;;;4.57;4.10;;;;;;;;;;6246977;22;20014;-82
2021/09/22 16:50:03;;;;;;;4.72;4.00;;;;;;;;;;6246897;23;20305;-84
2021/09/22 16:52:29;;;;;;;3.88;3.53;;;;;;;;;;6247290;23;20017;-77
2021/09/22 16:54:55;;;;;;;4.93;3.95;;;;;;;;;;6247172;23;20008;-79
2021/09/22 16:57:20;;;;;;;6.32;4.15;;;;;;;;;;6246776;22;20007;-83
2021/09/22 16:59:45;;;;;;;4.57;3.95;;;;;;;;;;6246967;23;20008;-79
2021/09/22 17:02:11;;;;;;;6.63;5.03;;;;;;;;;;6246935;23;20010;-79
2021/09/22 17:04:36;;;;;;;6.20;4.75;;;;;;;;;;6246326;23;20032;-78
2021/09/22 17:07:03;;;;;;;5.28;3.40;;;;;;;;;;6246589;22;20054;-79
2021/09/22 17:09:29;;;;;;;6.28;3.80;;;;;;;;;;6247039;23;20031;-77
2021/09/22 17:11:55;;;;;;;4.05;3.60;;;;;;;;;;6247004;23;20431;-77
2021/09/22 17:14:20;;;;;;;6.20;3.97;;;;;;;;;;6246593;23;20377;-81
2021/09/22 17:16:45;;;;;;;12.15;5.40;;;;;;;;;;6246720;22;20331;-80
2021/09/22 17:19:11;;;;;;;5.72;4.68;;;;;;;;;;6246701;23;20004;-76
2021/09/22 17:21:37;;;;;;;8.98;4.70;;;;;;;;;;6247059;23;20079;-84
2021/09/22 17:24:03;;;;;;;6.97;4.60;;;;;;;;;;6246725;23;20003;-76
2021/09/22 17:26:29;;;;;;;5.97;4.75;;;;;;;;;;6246352;22;20000;-79
2021/09/22 17:28:55;;;;;;;6.43;4.82;;;;;;;;;;6219820;23;20015;-77
2021/09/22 17:31:23;;;;;;;7.70;4.47;;;;;;;;;;6247187;23;20308;-75
2021/09/22 17:33:49;;;;;;;5.95;4.63;;;;;;;;;;6246816;23;20019;-78
2021/09/22 17:36:17;;;;;;;7.88;5.70;;;;;;;;;;6246639;23;20011;-79
2021/09/22 17:38:43;;;;;;;8.35;5.40;;;;;;;;;;6246461;22;20084;-78
2021/09/22 17:41:08;;;;;;;5.65;4.95;;;;;;;;;;6246349;23;20040;-79
2021/09/22 17:43:34;;;;;;;8.63;5.22;;;;;;;;;;6246598;23;20129;-79
2021/09/22 17:46:01;;;;;;;8.93;5.25;;;;;;;;;;6246817;23;20331;-78
2021/09/22 17:48:26;;;;;;;6.97;5.07;;;;;;;;;;6246547;22;20079;-79
2021/09/22 17:50:52;;;;;;;6.20;3.90;;;;;;;;;;6246499;23;20035;-77
2021/09/22 17:53:19;;;;;;;7.30;4.88;;;;;;;;;;6246383;23;20000;-78
2021/09/22 17:55:45;;;;;;;8.32;5.30;;;;;;;;;;6246276;23;20004;-77
2021/09/22 17:58:11;;;;;;;9.93;5.28;;;;;;;;;;6246239;22;20011;-79
2021/09/22 18:00:36;;;;;;;8.75;5.38;;;;;;;;;;6246763;23;20043;-82
2021/09/22 18:03:02;;;;;;;7.57;6.03;;;;;;;;;;6219674;23;20374;-81
2021/09/22 18:05:27;;;;;;;7.45;5.63;;;;;;;;;;6246419;23;20001;-88
2021/09/22 18:07:52;;;;;;;7.18;4.50;;;;;;;;;;6246612;22;20004;-91
2021/09/22 18:10:18;;;;;;;7.60;5.20;;;;;;;;;;6246542;23;20004;-81
2021/09/22 18:12:45;;;;;;;6.90;4.80;;;;;;;;;;6246974;23;20000;-92
2021/09/22 18:15:12;;;;;;;9.85;6.03;;;;;;;;;;6247406;23;20000;-90
2021/09/22 18:17:37;;;;;;;9.30;6.30;;;;;;;;;;6248639;22;20024;-91
2021/09/22 18:20:06;;;;;;;7.47;5.95;;;;;;;;;;6248620;23;19996;-88
2021/09/22 18:22:31;;;;;;;6.40;5.00;;;;;;;;;;6248603;23;20367;-84
2021/09/22 18:24:57;;;;;;;6.25;4.88;;;;;;;;;;6249380;23;20224;-90
2021/09/22 18:27:24;;;;;;;9.10;5.78;;;;;;;;;;6250386;22;20332;-96
2021/09/22 18:29:49;;;;;;;8.57;5.78;;;;;;;;;;6251200;23;20004;-84
2021/09/22 18:32:15;;;;;;;8.43;5.43;;;;;;;;;;6254034;23;20010;-82
2021/09/22 18:34:43;;;;;;;7.78;5.07;;;;;;;;;;6248654;23;20015;-86
2021/09/22 18:37:09;;;;;;;5.85;5.22;;;;;;;;;;6248601;22;20427;-91
2021/09/22 18:39:37;;;;;;;6.25;4.97;;;;;;;;;;6251148;23;20446;-89
2021/09/22 18:42:09;;;;;;;7.63;6.40;;;;;;;;;;6261195;23;20056;-80
2021/09/22 18:44:35;;;;;;;6.65;5.28;;;;;;;;;;6251251;23;20008;-89
2021/09/22 18:47:00;;;;;;;9.65;5.60;;;;;;;;;;6248473;22;20364;-85
2021/09/22 18:49:26;;;;;;;6.68;5.35;;;;;;;;;;6249013;23;20423;-90
2021/09/22 18:51:51;;;;;;;7.95;6.18;;;;;;;;;;6249062;23;20023;-81
2021/09/22 18:54:19;;;;;;;7.22;5.40;;;;;;;;;;6249215;23;20004;-92
2021/09/22 18:56:45;;;;;;;6.15;5.13;;;;;;;;;;6248833;22;20008;-92
2021/09/22 18:59:10;;;;;;;10.02;6.43;;;;;;;;;;6248779;23;20004;-88
2021/09/22 19:01:36;;;;;;;6.25;5.32;;;;;;;;;;6248494;23;20356;-91
2021/09/22 19:04:03;;;;;;;7.10;6.15;;;;;;;;;;6248699;23;20015;-92
2021/09/22 19:06:30;;;;;;;8.35;5.88;;;;;;;;;;6221329;22;20325;-82
2021/09/22 19:08:56;;;;;;;8.50;5.30;;;;;;;;;;6246452;23;20012;-90
2021/09/22 19:11:21;;;;;;;5.80;4.93;;;;;;;;;;6247137;23;20048;-93
2021/09/22 19:13:48;;;;;;;7.65;6.53;;;;;;;;;;6247108;23;20582;-95
2021/09/22 19:16:14;;;;;;;11.35;6.72;;;;;;;;;;6247627;23;20008;-94
2021/09/22 19:18:40;;;;;;;6.93;5.13;;;;;;;;;;6246943;22;20012;-91
2021/09/22 19:21:06;;;;;;;6.80;5.55;;;;;;;;;;6247404;23;20000;-88
2021/09/22 19:23:32;;;;;;;6.93;5.38;;;;;;;;;;6220802;23;20010;-93
2021/09/22 19:25:58;;;;;;;7.72;6.13;;;;;;;;;;6220608;23;20427;-93
2021/09/22 19:28:23;;;;;;;11.80;6.90;;;;;;;;;;6219984;23;20031;-94
2021/09/22 19:30:50;;;;;;;7.05;5.47;;;;;;;;;;6246988;23;20118;-89
2021/09/22 19:33:16;;;;;;;6.60;5.55;;;;;;;;;;6220627;23;20027;-91
2021/09/22 19:35:42;;;;;;;6.22;3.83;;;;;;;;;;6246991;23;20007;-93
2021/09/22 19:38:07;;;;;;;5.57;5.05;;;;;;;;;;6247472;22;20008;-92
2021/09/22 19:40:33;;;;;;;4.50;4.10;;;;;;;;;;6246981;23;20020;-79
2021/09/22 19:42:59;;;;;;;6.95;4.75;;;;;;;;;;6246470;23;20005;-92
2021/09/22 19:45:25;;;;;;;6.03;4.10;;;;;;;;;;6246804;23;20000;-89
2021/09/22 19:47:50;;;;;;;5.05;4.13;;;;;;;;;;6245999;22;20155;-93
2021/09/22 19:50:16;;;;;;;6.47;4.00;;;;;;;;;;6219407;23;20019;-92
2021/09/22 19:52:42;;;;;;;5.03;4.22;;;;;;;;;;6247532;23;20034;-93
2021/09/22 19:55:09;;;;;;;8.88;4.63;;;;;;;;;;6247355;23;20379;-95
2021/09/22 19:57:35;;;;;;;4.60;4.20;;;;;;;;;;6247811;22;20434;-94
2021/09/22 20:00:01;;;;;;;5.00;4.35;;;;;;;;;;6246962;23;20000;-93
2021/09/22 20:02:26;;;;;;;6.43;4.63;;;;;;;;;;6247832;23;20045;-93
2021/09/22 20:04:52;;;;;;;6.10;4.80;;;;;;;;;;6247633;23;20059;-89
2021/09/22 20:07:17;;;;;;;6.32;4.95;;;;;;;;;;6247935;22;20027;-93
2021/09/22 20:09:43;;;;;;;8.13;5.90;;;;;;;;;;6248269;23;20004;-93
2021/09/22 20:12:09;;;;;;;5.63;4.40;;;;;;;;;;6247621;23;20036;-94
2021/09/22 20:14:36;;;;;;;5.72;4.40;;;;;;;;;;6248302;23;20074;-88
2021/09/22 20:17:03;;;;;;;7.22;4.20;;;;;;;;;;6247884;22;20008;-94
2021/09/22 20:19:29;;;;;;;6.00;4.93;;;;;;;;;;6254046;23;20028;-95
2021/09/22 20:21:55;;;;;;;6.97;5.53;;;;;;;;;;6252056;23;20004;-96
2021/09/22 20:24:25;;;;;;;7.43;4.80;;;;;;;;;;6248697;23;20075;-95
2021/09/22 20:26:52;;;;;;;6.90;5.47;;;;;;;;;;6247630;22;20034;-88
2021/09/22 20:29:18;;;;;;;8.40;5.13;;;;;;;;;;6249468;23;20067;-96
2021/09/22 20:31:43;;;;;;;5.55;4.82;;;;;;;;;;6247824;23;20031;-96
2021/09/22 20:34:11;;;;;;;5.43;4.55;;;;;;;;;;6247607;23;20004;-94
2021/09/22 20:36:36;;;;;;;5.28;4.45;;;;;;;;;;6248433;22;20069;-94
2021/09/22 20:39:03;;;;;;;11.90;5.93;;;;;;;;;;6250197;23;20414;-96
2021/09/22 20:41:28;;;;;;;7.60;5.30;;;;;;;;;;6248491;23;20012;-96
2021/09/22 20:43:54;;;;;;;5.60;4.93;;;;;;;;;;6250093;23;20323;-96
2021/09/22 20:46:19;;;;;;;5.22;4.72;;;;;;;;;;6248015;23;20019;-96
2021/09/22 20:48:45;;;;;;;6.57;3.80;;;;;;;;;;6248917;22;20039;-96
2021/09/22 20:51:10;;;;;;;4.47;4.07;;;;;;;;;;6220898;23;20008;-92
2021/09/22 20:53:36;;;;;;;7.10;4.72;;;;;;;;;;6247911;23;20004;-92
2021/09/22 20:56:02;;;;;;;7.05;4.50;;;;;;;;;;6247314;23;20004;-92
2021/09/22 20:58:28;;;;;;;6.07;4.85;;;;;;;;;;6247275;22;20008;-95
2021/09/22 21:00:53;;;;;;;4.55;4.15;;;;;;;;;;6246983;23;20096;-86
2021/09/22 21:03:19;;;;;;;5.28;4.68;;;;;;;;;;6220405;23;20084;-96
2021/09/22 21:05:44;;;;;;;7.38;4.57;;;;;;;;;;6247134;23;20439;-95
2021/09/22 21:08:11;;;;;;;7.50;4.50;;;;;;;;;;6220150;23;20343;-93
2021/09/22 21:10:37;;;;;;;5.35;4.75;;;;;;;;;;6247033;23;20008;-95
2021/09/22 21:13:02;;;;;;;5.95;4.70;;;;;;;;;;6220238;23;20012;-95
2021/09/22 21:15:30;;;;;;;5.57;4.85;;;;;;;;;;6247361;23;20031;-96
2021/09/22 21:17:56;;;;;;;7.97;4.40;;;;;;;;;;6247099;22;20004;-90
2021/09/22 21:20:22;;;;;;;8.10;5.50;;;;;;;;;;6248680;23;20007;-90
2021/09/22 21:22:48;;;;;;;5.05;4.22;;;;;;;;;;6246946;23;20001;-89
2021/09/22 21:25:14;;;;;;;6.13;5.10;;;;;;;;;;6246294;23;20011;-83
2021/09/22 21:27:40;;;;;;;5.82;5.13;;;;;;;;;;6246413;22;20005;-95
2021/09/22 21:30:06;;;;;;;5.47;4.60;;;;;;;;;;6246727;23;20414;-94
2021/09/22 21:32:32;;;;;;;5.20;4.55;;;;;;;;;;6246756;23;20000;-93
2021/09/22 21:34:58;;;;;;;6.65;5.03;;;;;;;;;;6246914;23;20000;-92
2021/09/22 21:37:23;;;;;;;5.00;4.47;;;;;;;;;;6246749;22;20047;-95
2021/09/22 21:39:49;;;;;;;5.25;4.75;;;;;;;;;;6246833;23;20067;-91
2021/09/22 21:42:14;;;;;;;5.38;4.18;;;;;;;;;;6246449;23;20012;-93
2021/09/22 21:44:40;;;;;;;7.00;4.97;;;;;;;;;;6246859;23;20370;-96
2021/09/22 21:47:05;;;;;;;6.10;4.05;;;;;;;;;;6246653;22;20012;-96
2021/09/22 21:49:31;;;;;;;5.15;4.65;;;;;;;;;;6247082;23;20004;-96
2021/09/22 21:51:58;;;;;;;5.28;4.78;;;;;;;;;;6248337;23;20004;-91
2021/09/22 21:54:23;;;;;;;6.10;4.45;;;;;;;;;;6245890;23;20121;-80
2021/09/22 21:56:49;;;;;;;4.55;3.90;;;;;;;;;;6245603;22;20043;-87
